sensor_id;sensor_type;location;lat;lon;timestamp;pressure;altitude;pressure_sealevel;temperature;humidity
69221;BME280;56331;51.992;20.910;2023-01-30T00:00:07;99904.64;;;21.13;37.32
69221;BME280;56331;51.992;20.910;2023-01-30T00:02:42;99905.44;;;21.13;37.29
69221;BME280;56331;51.992;20.910;2023-01-30T00:05:07;99903.25;;;21.13;37.35
69221;BME280;56331;51.992;20.910;2023-01-30T00:07:34;99904.64;;;21.13;37.27
69221;BME280;56331;51.992;20.910;2023-01-30T00:10:00;99895.75;;;21.13;37.36
69221;BME280;56331;51.992;20.910;2023-01-30T00:12:27;99893.56;;;21.13;37.34
69221;BME280;56331;51.992;20.910;2023-01-30T00:14:53;99895.75;;;21.13;37.40
69221;BME280;56331;51.992;20.910;2023-01-30T00:17:19;99893.56;;;21.13;37.31
69221;BME280;56331;51.992;20.910;2023-01-30T00:19:46;99892.17;;;21.13;37.23
69221;BME280;56331;51.992;20.910;2023-01-30T00:22:12;99887.44;;;21.13;37.28
69221;BME280;56331;51.992;20.910;2023-01-30T00:24:38;99886.05;;;21.13;37.22
69221;BME280;56331;51.992;20.910;2023-01-30T00:27:05;99881.90;;;21.13;37.18
69221;BME280;56331;51.992;20.910;2023-01-30T00:29:31;99872.20;;;21.13;37.22
69221;BME280;56331;51.992;20.910;2023-01-30T00:31:58;99862.52;;;21.13;37.02
69221;BME280;56331;51.992;20.910;2023-01-30T00:34:26;99857.55;;;21.13;37.00
69221;BME280;56331;51.992;20.910;2023-01-30T00:36:53;99853.98;;;21.12;37.00
69221;BME280;56331;51.992;20.910;2023-01-30T00:39:20;99846.69;;;21.14;36.98
69221;BME280;56331;51.992;20.910;2023-01-30T00:41:46;99841.16;;;21.14;37.04
69221;BME280;56331;51.992;20.910;2023-01-30T00:44:31;99834.81;;;21.13;36.89
69221;BME280;56331;51.992;20.910;2023-01-30T00:47:15;99832.05;;;21.13;36.84
69221;BME280;56331;51.992;20.910;2023-01-30T00:49:41;99820.38;;;21.14;36.69
69221;BME280;56331;51.992;20.910;2023-01-30T00:52:08;99816.01;;;21.13;36.76
69221;BME280;56331;51.992;20.910;2023-01-30T00:54:35;99805.73;;;21.13;36.75
69221;BME280;56331;51.992;20.910;2023-01-30T00:57:02;99796.63;;;21.13;36.62
69221;BME280;56331;51.992;20.910;2023-01-30T00:59:29;99799.39;;;21.13;36.62
69221;BME280;56331;51.992;20.910;2023-01-30T01:01:55;99795.57;;;21.11;36.72
69221;BME280;56331;51.992;20.910;2023-01-30T01:04:22;99793.05;;;21.12;36.73
69221;BME280;56331;51.992;20.910;2023-01-30T01:06:48;99783.36;;;21.12;36.58
69221;BME280;56331;51.992;20.910;2023-01-30T01:09:15;99778.03;;;21.13;36.67
69221;BME280;56331;51.992;20.910;2023-01-30T01:11:41;99774.25;;;21.12;36.63
69221;BME280;56331;51.992;20.910;2023-01-30T01:14:08;99768.12;;;21.12;36.57
69221;BME280;56331;51.992;20.910;2023-01-30T01:16:35;99765.36;;;21.12;36.58
69221;BME280;56331;51.992;20.910;2023-01-30T01:19:01;99755.20;;;21.10;36.58
69221;BME280;56331;51.992;20.910;2023-01-30T01:21:28;99749.87;;;21.11;36.41
69221;BME280;56331;51.992;20.910;2023-01-30T01:23:57;99736.61;;;21.11;36.46
69221;BME280;56331;51.992;20.910;2023-01-30T01:26:24;99730.48;;;21.11;36.44
69221;BME280;56331;51.992;20.910;2023-01-30T01:28:55;99719.99;;;21.11;36.45
69221;BME280;56331;51.992;20.910;2023-01-30T01:31:22;99717.47;;;21.12;36.38
69221;BME280;56331;51.992;20.910;2023-01-30T01:33:49;99708.33;;;21.11;36.32
69221;BME280;56331;51.992;20.910;2023-01-30T01:36:16;99701.19;;;21.10;36.32
69221;BME280;56331;51.992;20.910;2023-01-30T01:38:42;99691.50;;;21.10;36.33
69221;BME280;56331;51.992;20.910;2023-01-30T01:41:14;99681.80;;;21.10;36.29
69221;BME280;56331;51.992;20.910;2023-01-30T01:49:03;99680.20;;;21.09;36.35
69221;BME280;56331;51.992;20.910;2023-01-30T01:54:15;99666.91;;;21.09;36.16
69221;BME280;56331;51.992;20.910;2023-01-30T01:56:44;99664.14;;;21.09;36.28
69221;BME280;56331;51.992;20.910;2023-01-30T01:59:31;99664.39;;;21.10;36.10
69221;BME280;56331;51.992;20.910;2023-01-30T02:02:00;99648.36;;;21.09;36.17
69221;BME280;56331;51.992;20.910;2023-01-30T02:04:27;99635.06;;;21.09;36.12
69221;BME280;56331;51.992;20.910;2023-01-30T02:07:15;99628.14;;;21.09;35.97
69221;BME280;56331;51.992;20.910;2023-01-30T02:09:43;99624.94;;;21.07;35.96
69221;BME280;56331;51.992;20.910;2023-01-30T02:12:10;99629.09;;;21.07;35.94
69221;BME280;56331;51.992;20.910;2023-01-30T02:14:39;99629.90;;;21.07;35.93
69221;BME280;56331;51.992;20.910;2023-01-30T02:17:05;99632.66;;;21.07;36.04
69221;BME280;56331;51.992;20.910;2023-01-30T02:19:47;99618.02;;;21.07;36.00
69221;BME280;56331;51.992;20.910;2023-01-30T02:22:43;99624.94;;;21.07;35.94
69221;BME280;56331;51.992;20.910;2023-01-30T02:34:32;99603.00;;;21.08;35.91
69221;BME280;56331;51.992;20.910;2023-01-30T02:39:53;99580.39;;;21.06;35.78
69221;BME280;56331;51.992;20.910;2023-01-30T02:47:50;99582.58;;;21.06;35.73
69221;BME280;56331;51.992;20.910;2023-01-30T02:50:19;99582.58;;;21.06;35.78
69221;BME280;56331;51.992;20.910;2023-01-30T02:52:47;99579.80;;;21.06;35.72
69221;BME280;56331;51.992;20.910;2023-01-30T02:55:27;99571.50;;;21.06;35.78
69221;BME280;56331;51.992;20.910;2023-01-30T02:57:54;99574.85;;;21.06;35.75
69221;BME280;56331;51.992;20.910;2023-01-30T03:05:33;99557.66;;;21.06;35.26
69221;BME280;56331;51.992;20.910;2023-01-30T03:08:10;99549.22;;;21.09;35.00
69221;BME280;56331;51.992;20.910;2023-01-30T03:15:59;99543.33;;;21.10;34.43
69221;BME280;56331;51.992;20.910;2023-01-30T03:18:25;99528.31;;;21.11;34.32
69221;BME280;56331;51.992;20.910;2023-01-30T03:21:04;99520.00;;;21.11;34.11
69221;BME280;56331;51.992;20.910;2023-01-30T03:23:31;99521.05;;;21.13;34.08
69221;BME280;56331;51.992;20.910;2023-01-30T03:25:58;99520.25;;;21.12;33.93
69221;BME280;56331;51.992;20.910;2023-01-30T03:28:25;99517.69;;;21.13;33.84
69221;BME280;56331;51.992;20.910;2023-01-30T03:30:52;99497.50;;;21.13;33.80
69221;BME280;56331;51.992;20.910;2023-01-30T03:33:18;99483.66;;;21.13;33.71
69221;BME280;56331;51.992;20.910;2023-01-30T03:35:45;99480.89;;;21.13;33.61
69221;BME280;56331;51.992;20.910;2023-01-30T03:38:11;99465.07;;;21.13;33.49
69221;BME280;56331;51.992;20.910;2023-01-30T03:40:41;99451.22;;;21.13;33.41
69221;BME280;56331;51.992;20.910;2023-01-30T03:43:08;99451.22;;;21.13;33.34
69221;BME280;56331;51.992;20.910;2023-01-30T03:45:34;99442.70;;;21.12;33.21
69221;BME280;56331;51.992;20.910;2023-01-30T03:48:01;99436.58;;;21.13;33.17
69221;BME280;56331;51.992;20.910;2023-01-30T03:50:27;99433.81;;;21.13;33.15
69221;BME280;56331;51.992;20.910;2023-01-30T03:52:58;99427.47;;;21.12;33.03
69221;BME280;56331;51.992;20.910;2023-01-30T03:55:22;99416.39;;;21.12;32.97
69221;BME280;56331;51.992;20.910;2023-01-30T03:57:53;99413.04;;;21.13;32.90
69221;BME280;56331;51.992;20.910;2023-01-30T04:00:19;99421.56;;;21.14;32.82
69221;BME280;56331;51.992;20.910;2023-01-30T04:02:46;99406.46;;;21.11;32.76
69221;BME280;56331;51.992;20.910;2023-01-30T04:05:12;99407.05;;;21.11;33.14
69221;BME280;56331;51.992;20.910;2023-01-30T04:07:39;99413.97;;;21.11;33.31
69221;BME280;56331;51.992;20.910;2023-01-30T04:10:06;99391.61;;;21.10;33.37
69221;BME280;56331;51.992;20.910;2023-01-30T04:12:33;99400.50;;;21.09;33.30
69221;BME280;56331;51.992;20.910;2023-01-30T04:14:59;99386.20;;;21.07;33.33
69221;BME280;56331;51.992;20.910;2023-01-30T04:17:26;99384.82;;;21.07;33.42
69221;BME280;56331;51.992;20.910;2023-01-30T04:19:52;99378.48;;;21.07;33.39
69221;BME280;56331;51.992;20.910;2023-01-30T04:22:19;99368.55;;;21.06;33.41
69221;BME280;56331;51.992;20.910;2023-01-30T04:24:45;99364.77;;;21.04;33.43
69221;BME280;56331;51.992;20.910;2023-01-30T04:27:12;99357.48;;;21.06;33.49
69221;BME280;56331;51.992;20.910;2023-01-30T04:29:38;99359.45;;;21.05;33.35
69221;BME280;56331;51.992;20.910;2023-01-30T04:32:05;99334.88;;;21.04;33.37
69221;BME280;56331;51.992;20.910;2023-01-30T04:34:31;99336.26;;;21.04;33.44
69221;BME280;56331;51.992;20.910;2023-01-30T04:36:58;99327.95;;;21.04;33.40
69221;BME280;56331;51.992;20.910;2023-01-30T04:39:24;99315.28;;;21.03;33.41
69221;BME280;56331;51.992;20.910;2023-01-30T04:41:51;99312.16;;;21.04;33.39
69221;BME280;56331;51.992;20.910;2023-01-30T04:44:17;99307.77;;;21.03;33.35
69221;BME280;56331;51.992;20.910;2023-01-30T04:46:44;99296.70;;;21.03;33.35
69221;BME280;56331;51.992;20.910;2023-01-30T04:49:11;99292.33;;;21.02;33.36
69221;BME280;56331;51.992;20.910;2023-01-30T04:51:37;99289.77;;;21.03;33.33
69221;BME280;56331;51.992;20.910;2023-01-30T04:54:04;99289.56;;;21.02;33.42
69221;BME280;56331;51.992;20.910;2023-01-30T04:56:31;99295.10;;;21.02;33.42
69221;BME280;56331;51.992;20.910;2023-01-30T04:58:58;99287.59;;;21.03;33.41
69221;BME280;56331;51.992;20.910;2023-01-30T05:03:59;99279.08;;;21.02;33.46
69221;BME280;56331;51.992;20.910;2023-01-30T05:06:26;99282.41;;;21.01;33.49
69221;BME280;56331;51.992;20.910;2023-01-30T05:08:54;99283.23;;;21.02;33.49
69221;BME280;56331;51.992;20.910;2023-01-30T05:11:22;99276.87;;;21.01;33.38
69221;BME280;56331;51.992;20.910;2023-01-30T05:13:49;99275.48;;;21.01;33.47
69221;BME280;56331;51.992;20.910;2023-01-30T05:16:17;99269.73;;;21.00;33.45
69221;BME280;56331;51.992;20.910;2023-01-30T05:18:43;99264.99;;;21.01;33.48
69221;BME280;56331;51.992;20.910;2023-01-30T05:21:12;99264.20;;;21.00;33.41
69221;BME280;56331;51.992;20.910;2023-01-30T05:23:40;99258.66;;;21.00;33.46
69221;BME280;56331;51.992;20.910;2023-01-30T05:26:07;99259.45;;;21.01;33.48
69221;BME280;56331;51.992;20.910;2023-01-30T05:28:34;99249.17;;;21.01;33.60
69221;BME280;56331;51.992;20.910;2023-01-30T05:31:03;99245.27;;;21.02;33.62
69221;BME280;56331;51.992;20.910;2023-01-30T05:33:30;99237.55;;;21.02;33.56
69221;BME280;56331;51.992;20.910;2023-01-30T05:35:59;99226.47;;;21.02;33.55
69221;BME280;56331;51.992;20.910;2023-01-30T05:38:27;99226.23;;;21.01;33.50
69221;BME280;56331;51.992;20.910;2023-01-30T05:41:03;99224.05;;;21.00;33.59
69221;BME280;56331;51.992;20.910;2023-01-30T05:43:30;99218.52;;;21.00;33.52
69221;BME280;56331;51.992;20.910;2023-01-30T05:45:58;99207.44;;;21.00;33.52
69221;BME280;56331;51.992;20.910;2023-01-30T05:48:25;99187.84;;;20.99;33.55
69221;BME280;56331;51.992;20.910;2023-01-30T05:50:53;99188.64;;;21.00;33.53
69221;BME280;56331;51.992;20.910;2023-01-30T05:53:22;99195.56;;;21.00;33.60
69221;BME280;56331;51.992;20.910;2023-01-30T05:56:00;99188.99;;;20.98;33.67
69221;BME280;56331;51.992;20.910;2023-01-30T05:58:27;99188.64;;;21.00;33.57
69221;BME280;56331;51.992;20.910;2023-01-30T06:01:03;99182.31;;;20.99;33.73
69221;BME280;56331;51.992;20.910;2023-01-30T06:03:30;99171.80;;;20.98;33.76
69221;BME280;56331;51.992;20.910;2023-01-30T06:05:56;99184.48;;;21.00;33.40
69221;BME280;56331;51.992;20.910;2023-01-30T06:08:23;99169.71;;;21.02;33.14
69221;BME280;56331;51.992;20.910;2023-01-30T06:10:49;99179.61;;;21.03;32.94
69221;BME280;56331;51.992;20.910;2023-01-30T06:13:16;99169.33;;;21.03;32.92
69221;BME280;56331;51.992;20.910;2023-01-30T06:15:45;99168.53;;;21.03;32.91
69221;BME280;56331;51.992;20.910;2023-01-30T06:18:17;99167.95;;;21.03;32.87
69221;BME280;56331;51.992;20.910;2023-01-30T06:20:48;99163.20;;;21.04;32.86
69221;BME280;56331;51.992;20.910;2023-01-30T06:23:20;99156.52;;;21.05;32.88
69221;BME280;56331;51.992;20.910;2023-01-30T06:25:49;99141.29;;;21.05;32.83
69221;BME280;56331;51.992;20.910;2023-01-30T06:28:18;99138.52;;;21.05;32.80
69221;BME280;56331;51.992;20.910;2023-01-30T06:30:45;99117.16;;;21.05;32.79
69221;BME280;56331;51.992;20.910;2023-01-30T06:33:11;99110.24;;;21.05;32.85
69221;BME280;56331;51.992;20.910;2023-01-30T06:35:38;99114.60;;;21.06;32.77
69221;BME280;56331;51.992;20.910;2023-01-30T06:38:05;99118.75;;;21.06;32.78
69221;BME280;56331;51.992;20.910;2023-01-30T06:40:32;99103.31;;;21.05;32.92
69221;BME280;56331;51.992;20.910;2023-01-30T06:42:58;99098.58;;;21.06;33.00
69221;BME280;56331;51.992;20.910;2023-01-30T06:45:26;99102.97;;;21.07;32.92
69221;BME280;56331;51.992;20.910;2023-01-30T06:47:54;99106.30;;;21.06;32.89
69221;BME280;56331;51.992;20.910;2023-01-30T06:50:24;99117.95;;;21.06;32.77
69221;BME280;56331;51.992;20.910;2023-01-30T06:52:51;99112.06;;;21.07;32.64
69221;BME280;56331;51.992;20.910;2023-01-30T06:55:20;99101.34;;;21.06;32.58
69221;BME280;56331;51.992;20.910;2023-01-30T06:57:47;99100.20;;;21.07;32.50
69221;BME280;56331;51.992;20.910;2023-01-30T07:00:18;99098.81;;;21.07;32.46
69221;BME280;56331;51.992;20.910;2023-01-30T07:02:46;99099.02;;;21.08;32.47
69221;BME280;56331;51.992;20.910;2023-01-30T07:05:12;99096.84;;;21.07;32.13
69221;BME280;56331;51.992;20.910;2023-01-30T07:07:39;99083.58;;;21.07;31.98
69221;BME280;56331;51.992;20.910;2023-01-30T07:10:09;99080.23;;;21.07;33.18
69221;BME280;56331;51.992;20.910;2023-01-30T07:12:48;99082.41;;;21.08;33.88
69221;BME280;56331;51.992;20.910;2023-01-30T07:15:14;99071.77;;;21.10;34.25
69221;BME280;56331;51.992;20.910;2023-01-30T07:17:41;99074.16;;;21.11;34.47
69221;BME280;56331;51.992;20.910;2023-01-30T07:20:09;99070.68;;;21.14;34.39
69221;BME280;56331;51.992;20.910;2023-01-30T07:22:36;99065.34;;;21.15;34.27
69221;BME280;56331;51.992;20.910;2023-01-30T07:25:03;99061.48;;;21.20;34.07
69221;BME280;56331;51.992;20.910;2023-01-30T07:27:30;99049.22;;;21.21;33.96
69221;BME280;56331;51.992;20.910;2023-01-30T07:29:56;99047.69;;;21.24;33.69
69221;BME280;56331;51.992;20.910;2023-01-30T07:32:23;99044.56;;;21.25;33.45
69221;BME280;56331;51.992;20.910;2023-01-30T07:34:50;99059.41;;;21.27;33.28
69221;BME280;56331;51.992;20.910;2023-01-30T07:37:16;99047.18;;;21.28;33.31
69221;BME280;56331;51.992;20.910;2023-01-30T07:39:43;99046.00;;;21.29;33.34
69221;BME280;56331;51.992;20.910;2023-01-30T07:42:09;99054.52;;;21.30;33.17
69221;BME280;56331;51.992;20.910;2023-01-30T07:44:36;99048.41;;;21.30;32.96
69221;BME280;56331;51.992;20.910;2023-01-30T07:47:02;99044.67;;;21.32;32.86
69221;BME280;56331;51.992;20.910;2023-01-30T07:49:28;99039.56;;;21.34;32.76
69221;BME280;56331;51.992;20.910;2023-01-30T07:51:55;99025.95;;;21.35;32.94
69221;BME280;56331;51.992;20.910;2023-01-30T07:54:22;99026.74;;;21.36;33.04
69221;BME280;56331;51.992;20.910;2023-01-30T07:56:48;99014.28;;;21.36;32.99
69221;BME280;56331;51.992;20.910;2023-01-30T07:59:14;99010.80;;;21.39;32.98
69221;BME280;56331;51.992;20.910;2023-01-30T08:01:41;99011.59;;;21.39;32.87
69221;BME280;56331;51.992;20.910;2023-01-30T08:04:07;99006.28;;;21.40;32.80
69221;BME280;56331;51.992;20.910;2023-01-30T08:06:34;99003.91;;;21.43;32.86
69221;BME280;56331;51.992;20.910;2023-01-30T08:09:02;99003.77;;;21.45;32.98
69221;BME280;56331;51.992;20.910;2023-01-30T08:11:28;98997.07;;;21.46;33.15
69221;BME280;56331;51.992;20.910;2023-01-30T08:13:55;98993.91;;;21.48;33.21
69221;BME280;56331;51.992;20.910;2023-01-30T08:16:22;98993.55;;;21.49;33.29
69221;BME280;56331;51.992;20.910;2023-01-30T08:18:48;98984.88;;;21.51;33.42
69221;BME280;56331;51.992;20.910;2023-01-30T08:21:14;98981.72;;;21.52;33.47
69221;BME280;56331;51.992;20.910;2023-01-30T08:23:41;98983.30;;;21.53;33.56
69221;BME280;56331;51.992;20.910;2023-01-30T08:26:07;98976.22;;;21.56;33.62
69221;BME280;56331;51.992;20.910;2023-01-30T08:28:33;98981.61;;;21.58;33.72
69221;BME280;56331;51.992;20.910;2023-01-30T08:31:00;98982.43;;;21.59;33.84
69221;BME280;56331;51.992;20.910;2023-01-30T08:33:26;98971.75;;;21.61;33.89
69221;BME280;56331;51.992;20.910;2023-01-30T08:35:54;98972.19;;;21.63;33.98
69221;BME280;56331;51.992;20.910;2023-01-30T08:38:21;98971.23;;;21.65;34.05
69221;BME280;56331;51.992;20.910;2023-01-30T08:40:47;98960.35;;;21.66;34.19
69221;BME280;56331;51.992;20.910;2023-01-30T08:43:13;98962.17;;;21.68;34.20
69221;BME280;56331;51.992;20.910;2023-01-30T08:45:40;98968.50;;;21.69;34.09
69221;BME280;56331;51.992;20.910;2023-01-30T08:48:07;98973.89;;;21.71;33.99
69221;BME280;56331;51.992;20.910;2023-01-30T08:50:34;98968.94;;;21.71;33.85
69221;BME280;56331;51.992;20.910;2023-01-30T08:53:07;98971.12;;;21.71;33.91
69221;BME280;56331;51.992;20.910;2023-01-30T08:55:34;98974.13;;;21.72;34.02
69221;BME280;56331;51.992;20.910;2023-01-30T08:58:01;98961.41;;;21.71;34.23
69221;BME280;56331;51.992;20.910;2023-01-30T09:00:27;98965.58;;;21.71;34.37
69221;BME280;56331;51.992;20.910;2023-01-30T09:02:54;98950.13;;;21.70;34.48
69221;BME280;56331;51.992;20.910;2023-01-30T09:05:21;98936.27;;;21.70;34.54
69221;BME280;56331;51.992;20.910;2023-01-30T09:07:48;98935.09;;;21.71;34.61
69221;BME280;56331;51.992;20.910;2023-01-30T09:10:15;98927.95;;;21.70;34.71
69221;BME280;56331;51.992;20.910;2023-01-30T09:12:42;98925.19;;;21.70;34.77
69221;BME280;56331;51.992;20.910;2023-01-30T09:15:09;98925.98;;;21.71;34.82
69221;BME280;56331;51.992;20.910;2023-01-30T09:17:36;98922.61;;;21.71;34.85
69221;BME280;56331;51.992;20.910;2023-01-30T09:20:05;98910.97;;;21.72;34.94
69221;BME280;56331;51.992;20.910;2023-01-30T09:22:32;98908.98;;;21.72;34.98
69221;BME280;56331;51.992;20.910;2023-01-30T09:24:58;98899.48;;;21.73;35.09
69221;BME280;56331;51.992;20.910;2023-01-30T09:27:25;98898.33;;;21.74;35.21
69221;BME280;56331;51.992;20.910;2023-01-30T09:29:51;98893.42;;;21.77;35.24
69221;BME280;56331;51.992;20.910;2023-01-30T09:32:17;98874.21;;;21.78;35.26
69221;BME280;56331;51.992;20.910;2023-01-30T09:34:44;98870.05;;;21.78;35.26
69221;BME280;56331;51.992;20.910;2023-01-30T09:37:10;98860.78;;;21.80;34.86
69221;BME280;56331;51.992;20.910;2023-01-30T09:39:36;98873.88;;;21.83;34.50
69221;BME280;56331;51.992;20.910;2023-01-30T09:47:10;98866.00;;;21.85;33.62
69221;BME280;56331;51.992;20.910;2023-01-30T09:55:12;98863.26;;;21.89;32.83
69221;BME280;56331;51.992;20.910;2023-01-30T09:57:25;98850.78;;;21.89;32.67
69221;BME280;56331;51.992;20.910;2023-01-30T10:00:13;98847.65;;;21.91;32.44
69221;BME280;56331;51.992;20.910;2023-01-30T10:11:16;98830.25;;;21.94;32.48
69221;BME280;56331;51.992;20.910;2023-01-30T10:13:34;98825.50;;;21.94;33.12
69221;BME280;56331;51.992;20.910;2023-01-30T10:18:44;98819.59;;;21.96;33.54
69221;BME280;56331;51.992;20.910;2023-01-30T10:26:46;98797.41;;;21.96;33.94
69221;BME280;56331;51.992;20.910;2023-01-30T10:34:56;98790.48;;;21.96;34.25
69221;BME280;56331;51.992;20.910;2023-01-30T10:40:25;98776.38;;;21.95;34.47
69221;BME280;56331;51.992;20.910;2023-01-30T10:45:31;98769.26;;;21.94;34.64
69221;BME280;56331;51.992;20.910;2023-01-30T10:48:11;98769.68;;;21.96;34.71
69221;BME280;56331;51.992;20.910;2023-01-30T10:53:25;98759.75;;;21.95;34.87
69221;BME280;56331;51.992;20.910;2023-01-30T10:55:55;98761.53;;;21.93;35.26
69221;BME280;56331;51.992;20.910;2023-01-30T11:01:16;98750.61;;;21.91;35.65
69221;BME280;56331;51.992;20.910;2023-01-30T11:03:49;98748.27;;;21.93;35.70
69221;BME280;56331;51.992;20.910;2023-01-30T11:06:17;98748.46;;;21.94;35.51
69221;BME280;56331;51.992;20.910;2023-01-30T11:08:45;98741.53;;;21.94;35.42
69221;BME280;56331;51.992;20.910;2023-01-30T11:11:29;98750.44;;;21.93;35.28
69221;BME280;56331;51.992;20.910;2023-01-30T11:14:05;98742.92;;;21.94;35.18
69221;BME280;56331;51.992;20.910;2023-01-30T11:16:32;98745.32;;;21.95;35.13
69221;BME280;56331;51.992;20.910;2023-01-30T11:18:58;98739.38;;;21.97;35.25
69221;BME280;56331;51.992;20.910;2023-01-30T11:21:28;98732.45;;;21.97;35.31
69221;BME280;56331;51.992;20.910;2023-01-30T11:23:56;98721.36;;;21.97;35.40
69221;BME280;56331;51.992;20.910;2023-01-30T11:26:31;98720.37;;;21.95;35.52
69221;BME280;56331;51.992;20.910;2023-01-30T11:28:57;98723.34;;;21.96;35.65
69221;BME280;56331;51.992;20.910;2023-01-30T11:31:28;98714.42;;;21.97;35.69
69221;BME280;56331;51.992;20.910;2023-01-30T11:34:01;98713.83;;;21.97;35.79
69221;BME280;56331;51.992;20.910;2023-01-30T11:36:30;98704.72;;;21.97;35.82
69221;BME280;56331;51.992;20.910;2023-01-30T11:39:02;98711.66;;;21.97;35.93
69221;BME280;56331;51.992;20.910;2023-01-30T11:41:30;98706.11;;;21.97;36.12
69221;BME280;56331;51.992;20.910;2023-01-30T11:44:01;98700.56;;;21.97;36.24
69221;BME280;56331;51.992;20.910;2023-01-30T11:46:30;98697.79;;;21.97;36.24
69221;BME280;56331;51.992;20.910;2023-01-30T11:48:59;98680.56;;;21.97;36.32
69221;BME280;56331;51.992;20.910;2023-01-30T11:51:26;98692.47;;;21.98;36.49
69221;BME280;56331;51.992;20.910;2023-01-30T11:54:01;98688.51;;;21.99;36.53
69221;BME280;56331;51.992;20.910;2023-01-30T11:56:47;98683.75;;;21.99;36.58
69221;BME280;56331;51.992;20.910;2023-01-30T12:01:44;98670.48;;;21.99;36.58
69221;BME280;56331;51.992;20.910;2023-01-30T12:04:11;98670.06;;;21.97;36.62
69221;BME280;56331;51.992;20.910;2023-01-30T12:06:40;98670.86;;;21.97;36.51
69221;BME280;56331;51.992;20.910;2023-01-30T12:09:27;98668.91;;;21.98;36.39
69221;BME280;56331;51.992;20.910;2023-01-30T12:11:54;98665.31;;;21.97;36.28
69221;BME280;56331;51.992;20.910;2023-01-30T12:14:38;98658.38;;;21.97;35.99
69221;BME280;56331;51.992;20.910;2023-01-30T12:20:28;98645.53;;;21.99;35.72
69221;BME280;56331;51.992;20.910;2023-01-30T12:25:08;98640.18;;;22.00;35.44
69221;BME280;56331;51.992;20.910;2023-01-30T12:33:03;98639.81;;;22.01;34.38
69221;BME280;56331;51.992;20.910;2023-01-30T12:35:51;98633.05;;;21.99;34.27
69221;BME280;56331;51.992;20.910;2023-01-30T12:44:20;98638.18;;;21.97;34.17
69221;BME280;56331;51.992;20.910;2023-01-30T12:52:38;98642.56;;;21.98;34.19
69221;BME280;56331;51.992;20.910;2023-01-30T12:55:22;98635.41;;;21.97;34.36
69221;BME280;56331;51.992;20.910;2023-01-30T12:58:10;98647.88;;;21.97;34.53
69221;BME280;56331;51.992;20.910;2023-01-30T13:06:13;98634.02;;;21.97;34.77
69221;BME280;56331;51.992;20.910;2023-01-30T13:14:21;98639.81;;;22.01;35.00
69221;BME280;56331;51.992;20.910;2023-01-30T13:19:46;98636.86;;;22.04;35.28
69221;BME280;56331;51.992;20.910;2023-01-30T13:25:20;98636.27;;;22.04;35.45
69221;BME280;56331;51.992;20.910;2023-01-30T13:27:53;98640.25;;;22.07;35.26
69221;BME280;56331;51.992;20.910;2023-01-30T13:30:18;98637.48;;;22.07;35.39
69221;BME280;56331;51.992;20.910;2023-01-30T13:32:47;98628.56;;;22.07;35.63
69221;BME280;56331;51.992;20.910;2023-01-30T13:35:19;98633.94;;;22.10;35.58
69221;BME280;56331;51.992;20.910;2023-01-30T13:37:48;98627.97;;;22.08;35.54
69221;BME280;56331;51.992;20.910;2023-01-30T13:40:18;98629.58;;;22.09;35.58
69221;BME280;56331;51.992;20.910;2023-01-30T13:45:20;98628.79;;;22.09;35.68
69221;BME280;56331;51.992;20.910;2023-01-30T13:48:27;98628.79;;;22.09;35.73
69221;BME280;56331;51.992;20.910;2023-01-30T13:57:18;98623.63;;;22.11;35.75
69221;BME280;56331;51.992;20.910;2023-01-30T14:02:22;98621.27;;;22.13;35.91
69221;BME280;56331;51.992;20.910;2023-01-30T14:04:56;98628.63;;;22.15;35.89
69221;BME280;56331;51.992;20.910;2023-01-30T14:07:31;98624.84;;;22.13;35.81
69221;BME280;56331;51.992;20.910;2023-01-30T14:10:18;98629.00;;;22.13;35.67
69221;BME280;56331;51.992;20.910;2023-01-30T14:12:46;98626.03;;;22.12;35.51
69221;BME280;56331;51.992;20.910;2023-01-30T14:20:45;98628.80;;;22.12;34.76
69221;BME280;56331;51.992;20.910;2023-01-30T14:23:33;98629.00;;;22.13;34.72
69221;BME280;56331;51.992;20.910;2023-01-30T14:26:01;98641.70;;;22.14;34.59
69221;BME280;56331;51.992;20.910;2023-01-30T14:31:02;98639.52;;;22.14;34.19
69221;BME280;56331;51.992;20.910;2023-01-30T14:33:31;98642.30;;;22.14;34.25
69221;BME280;56331;51.992;20.910;2023-01-30T14:38:33;98641.70;;;22.14;34.23
69221;BME280;56331;51.992;20.910;2023-01-30T14:49:03;98662.50;;;22.14;34.12
69221;BME280;56331;51.992;20.910;2023-01-30T14:51:47;98652.20;;;22.15;34.10
69221;BME280;56331;51.992;20.910;2023-01-30T15:07:19;98636.53;;;22.13;34.53
69221;BME280;56331;51.992;20.910;2023-01-30T15:09:59;98651.19;;;22.13;34.67
69221;BME280;56331;51.992;20.910;2023-01-30T15:23:45;98654.73;;;22.10;35.29
69221;BME280;56331;51.992;20.910;2023-01-30T15:31:37;98662.28;;;22.13;35.30
69221;BME280;56331;51.992;20.910;2023-01-30T15:34:14;98656.16;;;22.14;35.38
69221;BME280;56331;51.992;20.910;2023-01-30T15:36:36;98656.36;;;22.15;35.33
69221;BME280;56331;51.992;20.910;2023-01-30T15:39:14;98662.70;;;22.15;35.49
69221;BME280;56331;51.992;20.910;2023-01-30T15:41:37;98674.21;;;22.17;35.57
69221;BME280;56331;51.992;20.910;2023-01-30T15:44:15;98671.44;;;22.17;35.68
69221;BME280;56331;51.992;20.910;2023-01-30T15:52:16;98680.20;;;22.19;35.95
69221;BME280;56331;51.992;20.910;2023-01-30T15:54:50;98694.27;;;22.20;36.15
69221;BME280;56331;51.992;20.910;2023-01-30T15:57:34;98702.81;;;22.21;36.26
69221;BME280;56331;51.992;20.910;2023-01-30T16:00:04;98701.82;;;22.23;36.33
69221;BME280;56331;51.992;20.910;2023-01-30T16:02:32;98700.83;;;22.22;36.44
69221;BME280;56331;51.992;20.910;2023-01-30T16:05:12;98704.41;;;22.22;36.52
69221;BME280;56331;51.992;20.910;2023-01-30T16:07:34;98702.05;;;22.24;36.56
69221;BME280;56331;51.992;20.910;2023-01-30T16:10:00;98696.50;;;22.24;36.66